Brainard, Iowa
Current Conditions -  °F | °C
As of 3:35 PM on Friday 24 Oct 2014 (Local Time) from KDEH Reporting Station
Haze Haze  
Wind Chill: 57°   Ceiling: 500
Heat Index: 57°   Visibility: 5mi
Dew Point: 55°   Wind: 9mph
Humidity: 94%   Direction: 200°SSW
Pressure: 29.89"   Gusts: 15mph
Location:  42.9498°N, 91.6662°W
Report Text: KDEH 242035Z AUTO 20008G13KT 150V230 5SM BR OVC005 14/13 A2989 RMK AO2
Loading
Personal Weather Stations






























Interactive Weather Map
Tropical Storm Tracking
New forecast layout! Learn more

10-Day Weather Forecast

Advertisements
Track Severe Weather on mobile